sensor_id;sensor_type;location;lat;lon;timestamp;pressure;altitude;pressure_sealevel;temperature;humidity
21817;BME280;13247;47.504;7.382;2023-12-22T00:00:57;96790.53;;;9.70;100.00
21817;BME280;13247;47.504;7.382;2023-12-22T00:03:42;96796.56;;;9.72;100.00
21817;BME280;13247;47.504;7.382;2023-12-22T00:06:27;96807.81;;;9.51;100.00
21817;BME280;13247;47.504;7.382;2023-12-22T00:09:12;96822.94;;;9.43;100.00
21817;BME280;13247;47.504;7.382;2023-12-22T00:11:56;96810.97;;;9.61;100.00
21817;BME280;13247;47.504;7.382;2023-12-22T00:14:41;96775.56;;;9.74;100.00
21817;BME280;13247;47.504;7.382;2023-12-22T00:17:26;96781.03;;;9.68;100.00
21817;BME280;13247;47.504;7.382;2023-12-22T00:20:11;96782.69;;;9.70;100.00
21817;BME280;13247;47.504;7.382;2023-12-22T00:22:58;96801.88;;;9.71;100.00
21817;BME280;13247;47.504;7.382;2023-12-22T00:25:42;96794.88;;;9.71;100.00
21817;BME280;13247;47.504;7.382;2023-12-22T00:28:27;96804.56;;;9.69;100.00
21817;BME280;13247;47.504;7.382;2023-12-22T00:31:12;96803.06;;;9.62;100.00
21817;BME280;13247;47.504;7.382;2023-12-22T00:33:56;96791.44;;;9.46;100.00
21817;BME280;13247;47.504;7.382;2023-12-22T00:36:41;96802.16;;;9.38;100.00
21817;BME280;13247;47.504;7.382;2023-12-22T00:39:25;96815.94;;;9.43;100.00
21817;BME280;13247;47.504;7.382;2023-12-22T00:42:10;96818.28;;;9.51;100.00
21817;BME280;13247;47.504;7.382;2023-12-22T00:44:55;96801.47;;;9.58;100.00
21817;BME280;13247;47.504;7.382;2023-12-22T00:47:40;96816.84;;;9.67;100.00
21817;BME280;13247;47.504;7.382;2023-12-22T00:50:24;96795.13;;;9.64;100.00
21817;BME280;13247;47.504;7.382;2023-12-22T00:53:09;96810.78;;;9.65;100.00
21817;BME280;13247;47.504;7.382;2023-12-22T00:55:54;96818.09;;;9.80;100.00
21817;BME280;13247;47.504;7.382;2023-12-22T00:58:39;96800.78;;;9.76;100.00
21817;BME280;13247;47.504;7.382;2023-12-22T01:01:23;96807.84;;;9.74;100.00
21817;BME280;13247;47.504;7.382;2023-12-22T01:04:08;96815.59;;;9.77;100.00
21817;BME280;13247;47.504;7.382;2023-12-22T01:06:53;96819.16;;;9.75;100.00
21817;BME280;13247;47.504;7.382;2023-12-22T01:09:37;96826.88;;;9.55;100.00
21817;BME280;13247;47.504;7.382;2023-12-22T01:12:22;96823.50;;;9.51;100.00
21817;BME280;13247;47.504;7.382;2023-12-22T01:15:07;96836.75;;;9.46;100.00
21817;BME280;13247;47.504;7.382;2023-12-22T01:17:52;96813.38;;;9.42;100.00
21817;BME280;13247;47.504;7.382;2023-12-22T01:20:37;96826.34;;;9.45;100.00
21817;BME280;13247;47.504;7.382;2023-12-22T01:23:21;96828.06;;;9.46;100.00
21817;BME280;13247;47.504;7.382;2023-12-22T01:26:06;96835.00;;;9.47;100.00
21817;BME280;13247;47.504;7.382;2023-12-22T01:28:51;96821.91;;;9.47;100.00
21817;BME280;13247;47.504;7.382;2023-12-22T01:31:35;96822.84;;;9.46;100.00
21817;BME280;13247;47.504;7.382;2023-12-22T01:34:20;96823.72;;;9.45;100.00
21817;BME280;13247;47.504;7.382;2023-12-22T01:37:04;96826.66;;;9.36;100.00
21817;BME280;13247;47.504;7.382;2023-12-22T01:39:49;96823.25;;;9.34;100.00
21817;BME280;13247;47.504;7.382;2023-12-22T01:42:33;96854.00;;;9.27;100.00
21817;BME280;13247;47.504;7.382;2023-12-22T01:45:18;96856.97;;;9.17;100.00
21817;BME280;13247;47.504;7.382;2023-12-22T01:48:03;96863.41;;;9.07;100.00
21817;BME280;13247;47.504;7.382;2023-12-22T01:50:49;96860.34;;;8.94;100.00
21817;BME280;13247;47.504;7.382;2023-12-22T01:53:35;96892.53;;;8.70;100.00
21817;BME280;13247;47.504;7.382;2023-12-22T01:56:20;96893.28;;;8.74;100.00
21817;BME280;13247;47.504;7.382;2023-12-22T01:59:05;96875.97;;;8.69;100.00
21817;BME280;13247;47.504;7.382;2023-12-22T02:01:51;96903.91;;;8.67;100.00
21817;BME280;13247;47.504;7.382;2023-12-22T02:04:36;96904.38;;;8.52;100.00
21817;BME280;13247;47.504;7.382;2023-12-22T02:07:21;96917.31;;;8.57;100.00
21817;BME280;13247;47.504;7.382;2023-12-22T02:10:07;96917.13;;;8.63;100.00
21817;BME280;13247;47.504;7.382;2023-12-22T02:12:53;96921.41;;;8.65;100.00
21817;BME280;13247;47.504;7.382;2023-12-22T02:15:38;96916.22;;;8.64;100.00
21817;BME280;13247;47.504;7.382;2023-12-22T02:18:28;96917.50;;;8.79;100.00
21817;BME280;13247;47.504;7.382;2023-12-22T02:21:17;96915.88;;;8.75;100.00
21817;BME280;13247;47.504;7.382;2023-12-22T02:24:02;96900.19;;;8.75;100.00
21817;BME280;13247;47.504;7.382;2023-12-22T02:26:47;96896.56;;;8.79;100.00
21817;BME280;13247;47.504;7.382;2023-12-22T02:29:42;96887.72;;;8.84;100.00
21817;BME280;13247;47.504;7.382;2023-12-22T02:32:39;96903.13;;;8.92;100.00
21817;BME280;13247;47.504;7.382;2023-12-22T02:35:26;96903.91;;;8.95;100.00
21817;BME280;13247;47.504;7.382;2023-12-22T02:38:12;96896.09;;;8.94;100.00
21817;BME280;13247;47.504;7.382;2023-12-22T02:40:58;96902.94;;;8.98;100.00
21817;BME280;13247;47.504;7.382;2023-12-22T02:43:43;96906.19;;;9.06;100.00
21817;BME280;13247;47.504;7.382;2023-12-22T02:46:28;96899.97;;;9.08;100.00
21817;BME280;13247;47.504;7.382;2023-12-22T02:49:13;96895.06;;;8.99;100.00
21817;BME280;13247;47.504;7.382;2023-12-22T02:51:58;96889.72;;;9.02;100.00
21817;BME280;13247;47.504;7.382;2023-12-22T02:54:42;96900.97;;;9.06;100.00
21817;BME280;13247;47.504;7.382;2023-12-22T02:57:26;96913.50;;;8.95;100.00
21817;BME280;13247;47.504;7.382;2023-12-22T03:00:11;96905.81;;;8.62;100.00
21817;BME280;13247;47.504;7.382;2023-12-22T03:02:56;96902.16;;;8.39;100.00
21817;BME280;13247;47.504;7.382;2023-12-22T03:05:41;96900.59;;;8.33;100.00
21817;BME280;13247;47.504;7.382;2023-12-22T03:08:25;96926.25;;;8.19;100.00
21817;BME280;13247;47.504;7.382;2023-12-22T03:11:10;96951.56;;;8.16;100.00
21817;BME280;13247;47.504;7.382;2023-12-22T03:13:54;96951.50;;;8.19;100.00
21817;BME280;13247;47.504;7.382;2023-12-22T03:16:40;96953.91;;;8.26;100.00
21817;BME280;13247;47.504;7.382;2023-12-22T03:19:25;96960.81;;;8.29;100.00
21817;BME280;13247;47.504;7.382;2023-12-22T03:22:09;96983.59;;;8.22;100.00
21817;BME280;13247;47.504;7.382;2023-12-22T03:24:54;96993.94;;;7.61;100.00
21817;BME280;13247;47.504;7.382;2023-12-22T03:27:38;96969.31;;;7.37;100.00
21817;BME280;13247;47.504;7.382;2023-12-22T03:30:23;96978.69;;;7.46;100.00
21817;BME280;13247;47.504;7.382;2023-12-22T03:33:07;96968.41;;;7.40;100.00
21817;BME280;13247;47.504;7.382;2023-12-22T03:35:52;96967.34;;;7.47;100.00
21817;BME280;13247;47.504;7.382;2023-12-22T03:38:36;96952.72;;;7.41;100.00
21817;BME280;13247;47.504;7.382;2023-12-22T03:41:21;96960.31;;;7.50;100.00
21817;BME280;13247;47.504;7.382;2023-12-22T03:44:06;96992.13;;;7.64;100.00
21817;BME280;13247;47.504;7.382;2023-12-22T03:46:51;96979.53;;;7.80;100.00
21817;BME280;13247;47.504;7.382;2023-12-22T03:49:35;96968.75;;;7.92;100.00
21817;BME280;13247;47.504;7.382;2023-12-22T03:52:20;96963.41;;;7.98;100.00
21817;BME280;13247;47.504;7.382;2023-12-22T03:55:05;96962.66;;;8.25;100.00
21817;BME280;13247;47.504;7.382;2023-12-22T03:57:50;96949.56;;;8.56;100.00
21817;BME280;13247;47.504;7.382;2023-12-22T04:00:34;96952.78;;;8.65;100.00
21817;BME280;13247;47.504;7.382;2023-12-22T04:03:19;96943.88;;;8.71;100.00
21817;BME280;13247;47.504;7.382;2023-12-22T04:06:04;96945.56;;;8.74;100.00
21817;BME280;13247;47.504;7.382;2023-12-22T04:08:49;96955.75;;;8.83;100.00
21817;BME280;13247;47.504;7.382;2023-12-22T04:11:34;96951.72;;;8.71;100.00
21817;BME280;13247;47.504;7.382;2023-12-22T04:14:20;96944.00;;;8.66;100.00
21817;BME280;13247;47.504;7.382;2023-12-22T04:17:05;96949.25;;;8.66;100.00
21817;BME280;13247;47.504;7.382;2023-12-22T04:19:49;96943.69;;;8.77;100.00
21817;BME280;13247;47.504;7.382;2023-12-22T04:22:34;96954.94;;;8.81;100.00
21817;BME280;13247;47.504;7.382;2023-12-22T04:25:18;96948.59;;;8.88;100.00
21817;BME280;13247;47.504;7.382;2023-12-22T04:28:03;96953.06;;;8.84;100.00
21817;BME280;13247;47.504;7.382;2023-12-22T04:30:47;96957.34;;;8.87;100.00
21817;BME280;13247;47.504;7.382;2023-12-22T04:33:32;96968.84;;;8.81;100.00
21817;BME280;13247;47.504;7.382;2023-12-22T04:36:17;96974.16;;;8.78;100.00
21817;BME280;13247;47.504;7.382;2023-12-22T04:39:02;96978.28;;;8.87;100.00
21817;BME280;13247;47.504;7.382;2023-12-22T04:41:46;96961.78;;;8.83;100.00
21817;BME280;13247;47.504;7.382;2023-12-22T04:44:31;96972.13;;;8.88;100.00
21817;BME280;13247;47.504;7.382;2023-12-22T04:47:15;96965.09;;;8.90;100.00
21817;BME280;13247;47.504;7.382;2023-12-22T04:50:00;96963.25;;;8.93;100.00
21817;BME280;13247;47.504;7.382;2023-12-22T04:52:45;96963.88;;;9.00;100.00
21817;BME280;13247;47.504;7.382;2023-12-22T04:55:29;96963.13;;;8.96;100.00
21817;BME280;13247;47.504;7.382;2023-12-22T04:58:13;96959.72;;;8.94;100.00
21817;BME280;13247;47.504;7.382;2023-12-22T05:00:58;96968.47;;;8.93;100.00
21817;BME280;13247;47.504;7.382;2023-12-22T05:03:44;96963.09;;;8.98;100.00
21817;BME280;13247;47.504;7.382;2023-12-22T05:06:28;96968.97;;;9.04;100.00
21817;BME280;13247;47.504;7.382;2023-12-22T05:09:13;96978.75;;;8.99;100.00
21817;BME280;13247;47.504;7.382;2023-12-22T05:11:58;96965.69;;;8.98;100.00
21817;BME280;13247;47.504;7.382;2023-12-22T05:14:43;96970.75;;;9.04;100.00
21817;BME280;13247;47.504;7.382;2023-12-22T05:17:27;96968.38;;;8.96;100.00
21817;BME280;13247;47.504;7.382;2023-12-22T05:20:12;96958.56;;;9.03;100.00
21817;BME280;13247;47.504;7.382;2023-12-22T05:22:56;96966.41;;;9.03;100.00
21817;BME280;13247;47.504;7.382;2023-12-22T05:25:41;96964.72;;;9.02;100.00
21817;BME280;13247;47.504;7.382;2023-12-22T05:28:25;96962.75;;;9.08;100.00
21817;BME280;13247;47.504;7.382;2023-12-22T05:31:10;96961.19;;;9.03;100.00
21817;BME280;13247;47.504;7.382;2023-12-22T05:33:54;96962.19;;;8.99;100.00
21817;BME280;13247;47.504;7.382;2023-12-22T05:36:39;96963.88;;;9.00;100.00
21817;BME280;13247;47.504;7.382;2023-12-22T05:39:23;96962.13;;;9.00;100.00
21817;BME280;13247;47.504;7.382;2023-12-22T05:42:08;96971.03;;;8.95;100.00
21817;BME280;13247;47.504;7.382;2023-12-22T05:44:53;96975.28;;;8.99;100.00
21817;BME280;13247;47.504;7.382;2023-12-22T05:47:37;96956.22;;;8.95;100.00
21817;BME280;13247;47.504;7.382;2023-12-22T05:50:22;96965.94;;;8.90;100.00
21817;BME280;13247;47.504;7.382;2023-12-22T05:53:06;96961.66;;;8.88;100.00
21817;BME280;13247;47.504;7.382;2023-12-22T05:55:51;96973.06;;;8.85;100.00
21817;BME280;13247;47.504;7.382;2023-12-22T05:58:35;96966.84;;;8.89;100.00
21817;BME280;13247;47.504;7.382;2023-12-22T06:01:21;96975.78;;;8.82;100.00
21817;BME280;13247;47.504;7.382;2023-12-22T06:04:05;96983.56;;;8.84;100.00
21817;BME280;13247;47.504;7.382;2023-12-22T06:06:50;96999.44;;;8.78;100.00
21817;BME280;13247;47.504;7.382;2023-12-22T06:09:35;97016.81;;;8.79;100.00
21817;BME280;13247;47.504;7.382;2023-12-22T06:12:19;97025.28;;;8.57;100.00
21817;BME280;13247;47.504;7.382;2023-12-22T06:15:04;97035.53;;;8.34;100.00
21817;BME280;13247;47.504;7.382;2023-12-22T06:17:49;97051.50;;;8.22;100.00
21817;BME280;13247;47.504;7.382;2023-12-22T06:20:34;97042.78;;;8.23;100.00
21817;BME280;13247;47.504;7.382;2023-12-22T06:23:19;97056.94;;;8.15;100.00
21817;BME280;13247;47.504;7.382;2023-12-22T06:26:10;97067.69;;;8.03;100.00
21817;BME280;13247;47.504;7.382;2023-12-22T06:28:56;97061.91;;;8.24;100.00
21817;BME280;13247;47.504;7.382;2023-12-22T06:31:41;97076.69;;;8.26;100.00
21817;BME280;13247;47.504;7.382;2023-12-22T06:34:25;97079.53;;;8.17;100.00
21817;BME280;13247;47.504;7.382;2023-12-22T06:37:10;97082.13;;;8.17;100.00
21817;BME280;13247;47.504;7.382;2023-12-22T06:39:55;97077.59;;;8.25;100.00
21817;BME280;13247;47.504;7.382;2023-12-22T06:42:40;97083.59;;;8.29;100.00
21817;BME280;13247;47.504;7.382;2023-12-22T06:45:24;97077.44;;;8.31;100.00
21817;BME280;13247;47.504;7.382;2023-12-22T06:48:09;97074.72;;;8.34;100.00
21817;BME280;13247;47.504;7.382;2023-12-22T06:50:54;97070.97;;;8.44;100.00
21817;BME280;13247;47.504;7.382;2023-12-22T06:53:38;97063.09;;;8.46;100.00
21817;BME280;13247;47.504;7.382;2023-12-22T06:56:24;97077.09;;;8.43;100.00
21817;BME280;13247;47.504;7.382;2023-12-22T06:59:10;97067.38;;;8.48;100.00
21817;BME280;13247;47.504;7.382;2023-12-22T07:01:56;97058.56;;;8.52;100.00
21817;BME280;13247;47.504;7.382;2023-12-22T07:07:47;97067.38;;;8.48;100.00
21817;BME280;13247;47.504;7.382;2023-12-22T07:10:32;97083.06;;;8.47;100.00
21817;BME280;13247;47.504;7.382;2023-12-22T07:13:16;97091.78;;;8.47;100.00
21817;BME280;13247;47.504;7.382;2023-12-22T07:16:01;97090.19;;;8.42;100.00
21817;BME280;13247;47.504;7.382;2023-12-22T07:18:46;97092.75;;;8.43;100.00
21817;BME280;13247;47.504;7.382;2023-12-22T07:21:31;97093.56;;;8.45;100.00
21817;BME280;13247;47.504;7.382;2023-12-22T07:24:15;97099.72;;;8.43;100.00
21817;BME280;13247;47.504;7.382;2023-12-22T07:27:00;97099.50;;;8.52;100.00
21817;BME280;13247;47.504;7.382;2023-12-22T07:29:45;97107.63;;;8.41;100.00
21817;BME280;13247;47.504;7.382;2023-12-22T07:32:29;97106.00;;;8.37;100.00
21817;BME280;13247;47.504;7.382;2023-12-22T07:35:15;97127.59;;;8.44;100.00
21817;BME280;13247;47.504;7.382;2023-12-22T07:38:00;97135.25;;;8.50;100.00
21817;BME280;13247;47.504;7.382;2023-12-22T07:40:47;97137.84;;;8.51;100.00
21817;BME280;13247;47.504;7.382;2023-12-22T07:43:32;97129.00;;;8.55;100.00
21817;BME280;13247;47.504;7.382;2023-12-22T07:46:20;97128.25;;;8.52;100.00
21817;BME280;13247;47.504;7.382;2023-12-22T07:49:05;97124.06;;;8.45;100.00
21817;BME280;13247;47.504;7.382;2023-12-22T07:51:51;97127.53;;;8.45;100.00
21817;BME280;13247;47.504;7.382;2023-12-22T07:54:36;97123.94;;;8.49;100.00
21817;BME280;13247;47.504;7.382;2023-12-22T07:57:21;97130.25;;;8.42;100.00
21817;BME280;13247;47.504;7.382;2023-12-22T08:00:06;97127.47;;;8.48;100.00
21817;BME280;13247;47.504;7.382;2023-12-22T08:02:51;97127.38;;;8.51;100.00
21817;BME280;13247;47.504;7.382;2023-12-22T08:05:37;97141.47;;;8.46;100.00
21817;BME280;13247;47.504;7.382;2023-12-22T08:08:22;97137.00;;;8.51;100.00
21817;BME280;13247;47.504;7.382;2023-12-22T08:11:06;97148.13;;;8.57;100.00
21817;BME280;13247;47.504;7.382;2023-12-22T08:13:52;97142.00;;;8.58;100.00
21817;BME280;13247;47.504;7.382;2023-12-22T08:16:38;97174.22;;;8.59;100.00
21817;BME280;13247;47.504;7.382;2023-12-22T08:19:22;97156.88;;;8.56;100.00
21817;BME280;13247;47.504;7.382;2023-12-22T08:22:07;97152.41;;;8.60;100.00
21817;BME280;13247;47.504;7.382;2023-12-22T08:24:51;97155.81;;;8.63;100.00
21817;BME280;13247;47.504;7.382;2023-12-22T08:27:36;97148.81;;;8.64;100.00
21817;BME280;13247;47.504;7.382;2023-12-22T08:30:20;97154.03;;;8.65;100.00
21817;BME280;13247;47.504;7.382;2023-12-22T08:33:05;97152.19;;;8.69;100.00
21817;BME280;13247;47.504;7.382;2023-12-22T08:35:50;97145.09;;;8.73;100.00
21817;BME280;13247;47.504;7.382;2023-12-22T08:38:34;97147.41;;;8.85;100.00
21817;BME280;13247;47.504;7.382;2023-12-22T08:41:19;97141.38;;;8.81;100.00
21817;BME280;13247;47.504;7.382;2023-12-22T08:44:06;97141.66;;;8.72;100.00
21817;BME280;13247;47.504;7.382;2023-12-22T08:46:51;97145.78;;;8.81;100.00
21817;BME280;13247;47.504;7.382;2023-12-22T08:49:35;97143.09;;;8.82;100.00
21817;BME280;13247;47.504;7.382;2023-12-22T08:52:19;97145.03;;;8.76;100.00
21817;BME280;13247;47.504;7.382;2023-12-22T08:55:04;97151.13;;;8.76;100.00
21817;BME280;13247;47.504;7.382;2023-12-22T08:57:50;97154.66;;;8.74;100.00
21817;BME280;13247;47.504;7.382;2023-12-22T09:00:34;97162.41;;;8.77;100.00
21817;BME280;13247;47.504;7.382;2023-12-22T09:03:19;97159.03;;;8.73;100.00
21817;BME280;13247;47.504;7.382;2023-12-22T09:06:03;97154.63;;;8.75;100.00
21817;BME280;13247;47.504;7.382;2023-12-22T09:08:48;97167.50;;;8.83;100.00
21817;BME280;13247;47.504;7.382;2023-12-22T09:11:34;97159.78;;;8.77;100.00
21817;BME280;13247;47.504;7.382;2023-12-22T09:14:18;97145.72;;;8.82;100.00
21817;BME280;13247;47.504;7.382;2023-12-22T09:17:03;97156.06;;;8.87;100.00
21817;BME280;13247;47.504;7.382;2023-12-22T09:19:47;97153.63;;;8.81;100.00
21817;BME280;13247;47.504;7.382;2023-12-22T09:22:32;97158.78;;;8.82;100.00
21817;BME280;13247;47.504;7.382;2023-12-22T09:25:16;97154.91;;;8.97;100.00
21817;BME280;13247;47.504;7.382;2023-12-22T09:28:01;97166.50;;;8.87;100.00
21817;BME280;13247;47.504;7.382;2023-12-22T09:30:46;97169.38;;;8.78;100.00
21817;BME280;13247;47.504;7.382;2023-12-22T09:33:31;97177.16;;;8.81;100.00
21817;BME280;13247;47.504;7.382;2023-12-22T09:36:16;97184.13;;;8.79;100.00
21817;BME280;13247;47.504;7.382;2023-12-22T09:39:00;97187.31;;;8.90;100.00
21817;BME280;13247;47.504;7.382;2023-12-22T09:41:48;97194.88;;;8.68;100.00
21817;BME280;13247;47.504;7.382;2023-12-22T09:44:33;97190.72;;;8.61;100.00
21817;BME280;13247;47.504;7.382;2023-12-22T09:47:21;97188.69;;;8.72;100.00
21817;BME280;13247;47.504;7.382;2023-12-22T09:50:07;97182.59;;;8.72;100.00
21817;BME280;13247;47.504;7.382;2023-12-22T09:52:53;97185.13;;;8.75;100.00
21817;BME280;13247;47.504;7.382;2023-12-22T09:55:42;97185.94;;;8.77;100.00
21817;BME280;13247;47.504;7.382;2023-12-22T09:58:27;97192.72;;;8.84;100.00
21817;BME280;13247;47.504;7.382;2023-12-22T10:01:11;97172.47;;;8.92;100.00
21817;BME280;13247;47.504;7.382;2023-12-22T10:03:56;97161.00;;;8.96;100.00
21817;BME280;13247;47.504;7.382;2023-12-22T10:06:45;97154.09;;;8.95;100.00
21817;BME280;13247;47.504;7.382;2023-12-22T10:09:32;97146.13;;;8.98;100.00
21817;BME280;13247;47.504;7.382;2023-12-22T10:12:17;97148.75;;;8.98;100.00
21817;BME280;13247;47.504;7.382;2023-12-22T10:15:04;97137.34;;;9.00;100.00
21817;BME280;13247;47.504;7.382;2023-12-22T10:17:50;97133.91;;;8.98;100.00
21817;BME280;13247;47.504;7.382;2023-12-22T10:20:36;97133.84;;;9.01;100.00
21817;BME280;13247;47.504;7.382;2023-12-22T10:23:20;97131.91;;;9.08;100.00
21817;BME280;13247;47.504;7.382;2023-12-22T10:26:05;97142.44;;;9.05;100.00
21817;BME280;13247;47.504;7.382;2023-12-22T10:28:50;97145.69;;;9.13;100.00
21817;BME280;13247;47.504;7.382;2023-12-22T10:31:41;97143.13;;;9.11;100.00
21817;BME280;13247;47.504;7.382;2023-12-22T10:34:26;97141.75;;;9.29;100.00
21817;BME280;13247;47.504;7.382;2023-12-22T10:37:11;97136.84;;;9.18;100.00
21817;BME280;13247;47.504;7.382;2023-12-22T10:39:57;97141.91;;;9.23;100.00
21817;BME280;13247;47.504;7.382;2023-12-22T10:42:42;97130.63;;;9.21;100.00
21817;BME280;13247;47.504;7.382;2023-12-22T10:45:26;97112.88;;;9.32;100.00
21817;BME280;13247;47.504;7.382;2023-12-22T10:48:13;97111.69;;;9.42;100.00
21817;BME280;13247;47.504;7.382;2023-12-22T10:50:58;97114.41;;;9.39;100.00
21817;BME280;13247;47.504;7.382;2023-12-22T10:53:42;97102.41;;;9.32;100.00
21817;BME280;13247;47.504;7.382;2023-12-22T10:56:28;97099.91;;;9.27;100.00
21817;BME280;13247;47.504;7.382;2023-12-22T10:59:12;97115.34;;;9.36;100.00
21817;BME280;13247;47.504;7.382;2023-12-22T11:02:02;97104.94;;;9.35;100.00
21817;BME280;13247;47.504;7.382;2023-12-22T11:04:57;97083.94;;;9.36;100.00
21817;BME280;13247;47.504;7.382;2023-12-22T11:07:45;97081.00;;;9.47;100.00
21817;BME280;13247;47.504;7.382;2023-12-22T11:10:32;97066.16;;;9.47;100.00
21817;BME280;13247;47.504;7.382;2023-12-22T11:13:18;97061.88;;;9.45;100.00
21817;BME280;13247;47.504;7.382;2023-12-22T11:16:05;97043.63;;;9.43;100.00
21817;BME280;13247;47.504;7.382;2023-12-22T11:18:52;97049.69;;;9.44;100.00
21817;BME280;13247;47.504;7.382;2023-12-22T11:21:40;97051.13;;;9.54;100.00
21817;BME280;13247;47.504;7.382;2023-12-22T11:24:28;97040.50;;;9.59;100.00
21817;BME280;13247;47.504;7.382;2023-12-22T11:27:18;97040.66;;;9.54;100.00
21817;BME280;13247;47.504;7.382;2023-12-22T11:30:06;97033.28;;;9.65;100.00
21817;BME280;13247;47.504;7.382;2023-12-22T11:32:54;97023.94;;;9.58;100.00
21817;BME280;13247;47.504;7.382;2023-12-22T11:35:41;97014.38;;;9.57;100.00
21817;BME280;13247;47.504;7.382;2023-12-22T11:38:26;97025.63;;;9.61;100.00
21817;BME280;13247;47.504;7.382;2023-12-22T11:41:18;97006.31;;;9.63;100.00
21817;BME280;13247;47.504;7.382;2023-12-22T11:44:06;96995.91;;;9.62;100.00
21817;BME280;13247;47.504;7.382;2023-12-22T11:47:06;97028.72;;;9.72;100.00
21817;BME280;13247;47.504;7.382;2023-12-22T11:49:51;97032.41;;;9.66;100.00
21817;BME280;13247;47.504;7.382;2023-12-22T11:52:36;97031.69;;;9.61;100.00
21817;BME280;13247;47.504;7.382;2023-12-22T11:58:48;97018.44;;;9.66;100.00
21817;BME280;13247;47.504;7.382;2023-12-22T12:01:38;97008.09;;;9.63;100.00
21817;BME280;13247;47.504;7.382;2023-12-22T12:04:23;97013.94;;;9.71;100.00
21817;BME280;13247;47.504;7.382;2023-12-22T12:13:23;96993.50;;;9.80;100.00
21817;BME280;13247;47.504;7.382;2023-12-22T12:16:11;96997.75;;;9.84;100.00
21817;BME280;13247;47.504;7.382;2023-12-22T12:18:59;96989.34;;;9.75;100.00
21817;BME280;13247;47.504;7.382;2023-12-22T12:21:45;96996.84;;;9.85;100.00
21817;BME280;13247;47.504;7.382;2023-12-22T12:24:30;96991.56;;;9.87;100.00
21817;BME280;13247;47.504;7.382;2023-12-22T12:27:18;96982.34;;;9.75;100.00
21817;BME280;13247;47.504;7.382;2023-12-22T12:30:11;96978.81;;;9.76;100.00
21817;BME280;13247;47.504;7.382;2023-12-22T12:32:59;96976.78;;;9.84;100.00
21817;BME280;13247;47.504;7.382;2023-12-22T12:35:50;96962.72;;;9.88;100.00
21817;BME280;13247;47.504;7.382;2023-12-22T12:41:30;96954.56;;;9.96;100.00
21817;BME280;13247;47.504;7.382;2023-12-22T12:44:19;96964.97;;;9.99;100.00
21817;BME280;13247;47.504;7.382;2023-12-22T12:47:17;96964.09;;;9.98;100.00
21817;BME280;13247;47.504;7.382;2023-12-22T12:50:01;96952.97;;;9.92;100.00
21817;BME280;13247;47.504;7.382;2023-12-22T12:52:47;96965.44;;;9.85;100.00
21817;BME280;13247;47.504;7.382;2023-12-22T12:55:31;96969.59;;;9.91;100.00
21817;BME280;13247;47.504;7.382;2023-12-22T12:58:16;96985.28;;;9.92;100.00
21817;BME280;13247;47.504;7.382;2023-12-22T13:01:08;96958.38;;;9.87;100.00
21817;BME280;13247;47.504;7.382;2023-12-22T13:03:56;96971.38;;;9.90;100.00
21817;BME280;13247;47.504;7.382;2023-12-22T13:06:49;96971.97;;;9.97;100.00
21817;BME280;13247;47.504;7.382;2023-12-22T13:09:34;96965.00;;;9.97;100.00
21817;BME280;13247;47.504;7.382;2023-12-22T13:12:19;96956.09;;;10.03;100.00
21817;BME280;13247;47.504;7.382;2023-12-22T13:15:04;96955.09;;;10.05;100.00
21817;BME280;13247;47.504;7.382;2023-12-22T13:17:49;96958.63;;;10.04;100.00
21817;BME280;13247;47.504;7.382;2023-12-22T13:20:34;96955.66;;;10.15;100.00
21817;BME280;13247;47.504;7.382;2023-12-22T13:23:20;96970.47;;;10.16;100.00
21817;BME280;13247;47.504;7.382;2023-12-22T13:26:05;96975.84;;;10.13;100.00
21817;BME280;13247;47.504;7.382;2023-12-22T13:28:56;96977.59;;;10.12;100.00
21817;BME280;13247;47.504;7.382;2023-12-22T13:31:42;96975.03;;;10.11;100.00
21817;BME280;13247;47.504;7.382;2023-12-22T13:34:30;96966.25;;;10.12;100.00
21817;BME280;13247;47.504;7.382;2023-12-22T13:37:15;96972.28;;;10.14;100.00
21817;BME280;13247;47.504;7.382;2023-12-22T13:40:00;96978.44;;;10.13;100.00
21817;BME280;13247;47.504;7.382;2023-12-22T13:42:52;96991.50;;;10.14;100.00
21817;BME280;13247;47.504;7.382;2023-12-22T13:45:37;96990.69;;;10.12;100.00
21817;BME280;13247;47.504;7.382;2023-12-22T13:48:22;96980.56;;;10.26;100.00
21817;BME280;13247;47.504;7.382;2023-12-22T13:51:08;96979.09;;;10.19;100.00
21817;BME280;13247;47.504;7.382;2023-12-22T13:53:55;96986.03;;;10.20;100.00
21817;BME280;13247;47.504;7.382;2023-12-22T13:56:43;96979.09;;;10.19;100.00
21817;BME280;13247;47.504;7.382;2023-12-22T13:59:34;96999.63;;;10.32;100.00
21817;BME280;13247;47.504;7.382;2023-12-22T14:02:23;96995.22;;;10.32;100.00
21817;BME280;13247;47.504;7.382;2023-12-22T14:05:08;96998.22;;;10.21;100.00
21817;BME280;13247;47.504;7.382;2023-12-22T14:07:53;96987.75;;;10.21;100.00
21817;BME280;13247;47.504;7.382;2023-12-22T14:10:37;96989.22;;;10.28;100.00
21817;BME280;13247;47.504;7.382;2023-12-22T14:13:28;96990.09;;;10.29;100.00
21817;BME280;13247;47.504;7.382;2023-12-22T14:16:13;97000.06;;;10.19;100.00
21817;BME280;13247;47.504;7.382;2023-12-22T14:18:59;97005.78;;;10.31;100.00
21817;BME280;13247;47.504;7.382;2023-12-22T14:21:43;97006.78;;;10.26;100.00
21817;BME280;13247;47.504;7.382;2023-12-22T14:24:28;97010.38;;;10.24;100.00
21817;BME280;13247;47.504;7.382;2023-12-22T14:27:13;97001.88;;;10.17;100.00
21817;BME280;13247;47.504;7.382;2023-12-22T14:29:57;97015.72;;;10.21;100.00
21817;BME280;13247;47.504;7.382;2023-12-22T14:32:42;97015.66;;;10.22;100.00
21817;BME280;13247;47.504;7.382;2023-12-22T14:35:27;97008.78;;;10.20;100.00
21817;BME280;13247;47.504;7.382;2023-12-22T14:38:11;97018.28;;;10.22;100.00
21817;BME280;13247;47.504;7.382;2023-12-22T14:40:56;97006.09;;;10.21;100.00
21817;BME280;13247;47.504;7.382;2023-12-22T14:43:40;97021.75;;;10.23;100.00
21817;BME280;13247;47.504;7.382;2023-12-22T14:46:25;97009.59;;;10.20;100.00
21817;BME280;13247;47.504;7.382;2023-12-22T14:49:09;96997.38;;;10.21;100.00
21817;BME280;13247;47.504;7.382;2023-12-22T14:51:54;97004.75;;;10.35;100.00